Terminal Aerodrome Forecast
Issued by NWS

Home | Current Version | Previous Version | Text Only | Print | Product List | Glossary On
Versions: 1 2 3 4 5 6 7 8 9 10 11 12 13 14 15 16 17 18 19
000
FTUS41 KBOX 240748 AAA
TAFBED
TAF AMD
KBED 240748Z 2408/2506 10004KT P6SM VCSH OVC090
     FM241000 09005KT P6SM -RA OVC060
     FM241700 07011G18KT 3SM -RA BR OVC015
     FM242200 03009KT 6SM BR VCSH OVC010
     FM250200 02009KT P6SM VCSH OVC010=

USA.gov is the U.S. government's official web portal to all federal, state and local government web resources and services.